createdAt,value
2022-08-27T00:00:19.133Z,21.67
2022-08-27T00:02:46.054Z,21.68
2022-08-27T00:05:14.792Z,21.64
2022-08-27T00:07:42.424Z,21.70
2022-08-27T00:10:13.342Z,21.56
2022-08-27T00:12:40.015Z,21.63
2022-08-27T00:15:07.732Z,21.63
2022-08-27T00:17:35.208Z,21.62
2022-08-27T00:20:02.510Z,21.53
2022-08-27T00:22:29.137Z,21.53
2022-08-27T00:24:55.753Z,21.45
2022-08-27T00:27:22.385Z,21.40
2022-08-27T00:29:49.517Z,21.37
2022-08-27T00:32:17.052Z,21.35
2022-08-27T00:34:44.109Z,21.39
2022-08-27T00:37:11.053Z,21.18
2022-08-27T00:39:37.684Z,21.16
2022-08-27T00:42:05.923Z,21.10
2022-08-27T00:44:33.309Z,21.18
2022-08-27T00:47:04.743Z,21.16
2022-08-27T00:49:43.007Z,21.13
2022-08-27T00:52:51.505Z,21.13
2022-08-27T00:55:24.187Z,21.17
2022-08-27T00:58:12.577Z,21.16
2022-08-27T01:00:39.445Z,21.33
2022-08-27T01:03:06.528Z,21.31
2022-08-27T01:05:34.937Z,21.15
2022-08-27T01:08:08.203Z,21.07
2022-08-27T01:10:35.838Z,20.84
2022-08-27T01:13:03.185Z,20.76
2022-08-27T01:15:30.527Z,20.85
2022-08-27T01:17:58.922Z,20.80
2022-08-27T01:20:38.189Z,20.75
2022-08-27T01:23:08.340Z,20.77
2022-08-27T01:25:35.256Z,20.82
2022-08-27T01:28:03.571Z,20.67
2022-08-27T01:30:31.329Z,20.59
2022-08-27T01:32:57.980Z,21.07
2022-08-27T01:35:25.586Z,20.90
2022-08-27T01:37:57.110Z,20.80
2022-08-27T01:40:24.487Z,20.77
2022-08-27T01:42:55.100Z,20.58
2022-08-27T01:45:33.366Z,20.59
2022-08-27T01:48:00.786Z,20.56
2022-08-27T01:50:33.213Z,20.55
2022-08-27T01:53:09.098Z,20.44
2022-08-27T01:55:35.737Z,20.56
2022-08-27T01:58:02.693Z,20.61
2022-08-27T02:00:33.308Z,20.67
2022-08-27T02:03:00.028Z,20.72
2022-08-27T02:05:28.390Z,20.85
2022-08-27T02:07:56.223Z,20.65
2022-08-27T02:10:26.708Z,20.56
2022-08-27T02:12:53.441Z,20.58
2022-08-27T02:15:22.571Z,20.35
2022-08-27T02:17:49.500Z,20.20
2022-08-27T02:20:17.176Z,20.36
2022-08-27T02:22:44.568Z,20.34
2022-08-27T02:25:13.480Z,20.24
2022-08-27T02:27:42.302Z,20.27
2022-08-27T02:30:11.386Z,20.21
2022-08-27T02:32:38.111Z,20.13
2022-08-27T02:35:05.699Z,20.08
2022-08-27T02:37:32.765Z,20.04
2022-08-27T02:39:59.468Z,19.99
2022-08-27T02:42:26.155Z,20.01
2022-08-27T02:44:52.783Z,20.03
2022-08-27T02:47:19.478Z,19.95
2022-08-27T02:49:46.095Z,19.90
2022-08-27T02:52:12.832Z,19.85
2022-08-27T02:54:40.177Z,19.83
2022-08-27T02:57:06.788Z,19.89
2022-08-27T02:59:33.509Z,19.92
2022-08-27T03:02:00.298Z,19.80
2022-08-27T03:04:27.461Z,19.71
2022-08-27T03:06:54.102Z,19.72
2022-08-27T03:09:21.325Z,19.66
2022-08-27T03:11:48.004Z,19.62
2022-08-27T03:14:14.753Z,19.62
2022-08-27T03:16:41.498Z,19.64
2022-08-27T03:19:08.372Z,19.57
2022-08-27T03:21:35.875Z,19.59
2022-08-27T03:24:11.245Z,19.48
2022-08-27T03:26:38.563Z,19.42
2022-08-27T03:29:05.378Z,19.39
2022-08-27T03:31:32.067Z,19.37
2022-08-27T03:34:01.992Z,19.48
2022-08-27T03:36:30.662Z,19.49
2022-08-27T03:38:58.238Z,19.49
2022-08-27T03:41:54.009Z,19.59
2022-08-27T03:44:18.470Z,19.63
2022-08-27T03:46:51.312Z,19.55
2022-08-27T03:49:21.413Z,19.42
2022-08-27T03:51:50.083Z,19.40
2022-08-27T03:54:16.787Z,19.44
2022-08-27T03:56:43.464Z,19.35
2022-08-27T03:59:10.150Z,19.30
2022-08-27T04:01:36.838Z,19.35
2022-08-27T04:04:04.070Z,19.29
2022-08-27T04:06:30.710Z,19.25
2022-08-27T04:08:57.350Z,19.22
2022-08-27T04:11:23.992Z,19.24
2022-08-27T04:13:50.596Z,19.34
2022-08-27T04:16:18.488Z,19.32
2022-08-27T04:18:45.208Z,19.29
2022-08-27T04:21:13.797Z,19.35
2022-08-27T04:23:41.764Z,19.37
2022-08-27T04:26:11.031Z,19.38
2022-08-27T04:28:38.969Z,19.21
2022-08-27T04:31:12.967Z,19.20
2022-08-27T04:33:44.051Z,19.19
2022-08-27T04:36:18.351Z,19.14
2022-08-27T04:38:45.078Z,19.16
2022-08-27T04:41:12.200Z,18.99
2022-08-27T04:43:38.861Z,18.85
2022-08-27T04:46:05.721Z,18.79
2022-08-27T04:48:32.915Z,18.82
2022-08-27T04:50:59.549Z,18.81
2022-08-27T04:53:26.467Z,18.98
2022-08-27T04:55:55.427Z,19.07
2022-08-27T04:58:24.359Z,19.08
2022-08-27T05:00:54.551Z,19.21
2022-08-27T05:03:23.579Z,19.16
2022-08-27T05:05:52.115Z,19.04
2022-08-27T05:08:19.345Z,19.16
2022-08-27T05:10:48.786Z,19.25
2022-08-27T05:13:18.103Z,19.28
2022-08-27T05:15:44.937Z,19.29
2022-08-27T05:18:12.353Z,19.26
2022-08-27T05:20:46.560Z,19.30
2022-08-27T05:23:17.503Z,19.26
2022-08-27T05:25:47.457Z,19.20
2022-08-27T05:28:15.745Z,19.23
2022-08-27T05:30:49.269Z,19.18
2022-08-27T05:33:25.056Z,19.14
2022-08-27T05:35:54.591Z,19.13
2022-08-27T05:38:22.890Z,19.03
2022-08-27T05:40:49.539Z,19.17
2022-08-27T05:43:18.236Z,19.24
2022-08-27T05:45:47.403Z,19.34
2022-08-27T05:48:14.955Z,19.45
2022-08-27T05:50:43.851Z,19.46
2022-08-27T05:53:12.579Z,19.62
2022-08-27T05:55:44.951Z,19.57
2022-08-27T05:58:13.443Z,19.60
2022-08-27T06:00:40.074Z,19.58
2022-08-27T06:03:07.231Z,19.69
2022-08-27T06:05:34.063Z,19.86
2022-08-27T06:08:00.790Z,19.85
2022-08-27T06:10:27.534Z,20.08
2022-08-27T06:12:57.037Z,20.12
2022-08-27T06:15:23.842Z,20.22
2022-08-27T06:17:50.484Z,20.18
2022-08-27T06:20:17.115Z,20.22
2022-08-27T06:22:43.833Z,20.43
2022-08-27T06:25:10.455Z,20.44
2022-08-27T06:27:37.101Z,20.53
2022-08-27T06:30:04.502Z,20.55
2022-08-27T06:32:31.116Z,20.64
2022-08-27T06:34:57.768Z,20.67
2022-08-27T06:37:24.448Z,20.97
2022-08-27T06:39:51.382Z,21.23
2022-08-27T06:42:18.050Z,21.22
2022-08-27T06:44:44.753Z,21.25
2022-08-27T06:47:11.741Z,21.29
2022-08-27T06:49:40.635Z,21.53
2022-08-27T06:52:07.289Z,21.72
2022-08-27T06:54:35.908Z,21.77
2022-08-27T06:57:02.581Z,21.79
2022-08-27T06:59:30.483Z,21.92
2022-08-27T07:01:57.494Z,22.05
2022-08-27T07:04:32.689Z,22.22
2022-08-27T07:07:01.028Z,22.20
2022-08-27T07:09:27.695Z,22.18
2022-08-27T07:11:54.306Z,22.20
2022-08-27T07:14:20.980Z,22.34
2022-08-27T07:16:48.313Z,22.56
2022-08-27T07:19:17.319Z,23.03
2022-08-27T07:21:44.230Z,23.02
2022-08-27T07:24:12.255Z,23.05
2022-08-27T07:26:42.126Z,23.05
2022-08-27T07:29:11.265Z,23.04
2022-08-27T07:31:38.856Z,23.16
2022-08-27T07:34:06.995Z,23.27
2022-08-27T07:36:35.046Z,23.82
2022-08-27T07:39:02.110Z,23.87
2022-08-27T07:41:31.376Z,24.35
2022-08-27T07:44:02.759Z,24.23
2022-08-27T07:46:29.433Z,24.15
2022-08-27T07:48:56.706Z,24.11
2022-08-27T07:51:25.080Z,24.59
2022-08-27T07:53:52.536Z,24.59
2022-08-27T07:56:19.126Z,24.54
2022-08-27T07:58:46.165Z,24.53
2022-08-27T08:01:13.310Z,24.61
2022-08-27T08:03:40.996Z,24.76
2022-08-27T08:06:12.449Z,25.15
2022-08-27T08:08:40.742Z,25.39
2022-08-27T08:11:08.774Z,25.31
2022-08-27T08:13:36.463Z,25.41
2022-08-27T08:16:03.415Z,25.42
2022-08-27T08:18:30.075Z,25.26
2022-08-27T08:21:01.652Z,25.63
2022-08-27T08:23:28.740Z,25.47
2022-08-27T08:25:55.830Z,25.50
2022-08-27T08:28:22.492Z,25.85
2022-08-27T08:30:49.300Z,25.56
2022-08-27T08:33:15.932Z,25.52
2022-08-27T08:35:42.669Z,25.60
2022-08-27T08:38:10.237Z,25.69
2022-08-27T08:40:43.427Z,25.77
2022-08-27T08:43:33.328Z,25.94
2022-08-27T08:46:21.824Z,26.51
2022-08-27T08:48:54.820Z,26.38
2022-08-27T08:51:39.134Z,26.61
2022-08-27T08:54:20.102Z,27.21
2022-08-27T08:56:57.447Z,27.39
2022-08-27T08:59:31.946Z,27.16
2022-08-27T09:01:59.038Z,27.16
2022-08-27T09:04:30.048Z,27.54
2022-08-27T09:07:09.898Z,27.04
2022-08-27T09:09:47.577Z,27.16
2022-08-27T09:12:19.497Z,27.21
2022-08-27T09:14:53.100Z,27.38
2022-08-27T09:17:20.853Z,27.57
2022-08-27T09:19:48.473Z,27.68
2022-08-27T09:22:39.544Z,27.77
2022-08-27T09:25:25.412Z,28.13
2022-08-27T09:27:56.861Z,28.28
2022-08-27T09:30:30.571Z,28.33
2022-08-27T09:33:03.131Z,28.53
2022-08-27T09:35:41.067Z,28.42
2022-08-27T09:38:08.427Z,28.31
2022-08-27T09:40:45.755Z,28.51
2022-08-27T09:43:25.776Z,28.36
2022-08-27T09:45:58.417Z,28.83
2022-08-27T09:48:29.420Z,28.90
2022-08-27T09:51:08.336Z,28.74
2022-08-27T09:53:44.745Z,28.95
2022-08-27T09:56:24.640Z,29.09
2022-08-27T09:58:54.648Z,29.08
2022-08-27T10:01:26.848Z,29.54
2022-08-27T10:04:27.461Z,29.43
2022-08-27T10:06:54.210Z,29.33
2022-08-27T10:09:33.396Z,29.33
2022-08-27T10:12:16.909Z,29.28
2022-08-27T10:14:52.454Z,29.46
2022-08-27T10:17:25.582Z,29.81
2022-08-27T10:20:16.459Z,29.76
2022-08-27T10:23:19.107Z,29.95
2022-08-27T10:25:59.309Z,29.94
2022-08-27T10:28:31.485Z,29.43
2022-08-27T10:31:13.280Z,29.84
2022-08-27T10:33:42.731Z,29.69
2022-08-27T10:36:34.220Z,30.07
2022-08-27T10:39:13.053Z,30.25
2022-08-27T10:41:51.576Z,30.37
2022-08-27T10:44:38.891Z,30.53
2022-08-27T10:47:32.766Z,30.00
2022-08-27T10:50:10.860Z,30.15
2022-08-27T10:52:54.099Z,30.75
2022-08-27T10:55:42.413Z,29.96
2022-08-27T10:58:33.381Z,30.26
2022-08-27T11:01:18.053Z,30.40
2022-08-27T11:03:51.419Z,30.62
2022-08-27T11:06:41.496Z,30.51
2022-08-27T11:09:17.912Z,30.59
2022-08-27T11:14:45.998Z,30.70
2022-08-27T11:17:25.360Z,31.01
2022-08-27T11:20:28.817Z,31.05
2022-08-27T11:23:15.579Z,31.22
2022-08-27T11:26:01.095Z,31.12
2022-08-27T11:28:46.584Z,31.22
2022-08-27T11:31:27.902Z,31.05
2022-08-27T11:34:00.499Z,31.00
2022-08-27T11:36:27.128Z,31.06
2022-08-27T11:39:14.485Z,30.97
2022-08-27T11:42:09.514Z,31.48
2022-08-27T11:44:48.645Z,31.50
2022-08-27T11:47:25.167Z,31.28
2022-08-27T11:49:59.557Z,31.11
2022-08-27T11:52:35.581Z,31.37
2022-08-27T11:55:27.517Z,31.38
2022-08-27T11:58:09.252Z,31.10
2022-08-27T12:00:41.202Z,31.55
2022-08-27T12:03:23.319Z,31.60
2022-08-27T12:06:09.811Z,31.40
2022-08-27T12:08:37.789Z,31.28
2022-08-27T12:11:29.023Z,31.61
2022-08-27T12:13:58.362Z,32.08
2022-08-27T12:16:42.462Z,32.07
2022-08-27T12:19:16.002Z,32.09
2022-08-27T12:21:48.634Z,32.01
2022-08-27T12:24:21.121Z,32.28
2022-08-27T12:26:58.146Z,31.89
2022-08-27T12:29:27.766Z,31.69
2022-08-27T12:32:44.213Z,31.65
2022-08-27T12:35:17.885Z,32.29
2022-08-27T12:37:44.437Z,32.02
2022-08-27T12:40:40.380Z,32.02
2022-08-27T12:43:09.178Z,32.09
2022-08-27T12:45:50.561Z,32.36
2022-08-27T12:48:46.681Z,32.35
2022-08-27T12:51:33.977Z,32.10
2022-08-27T12:54:02.863Z,32.45
2022-08-27T12:56:44.825Z,32.92
2022-08-27T12:59:52.548Z,32.77
2022-08-27T13:02:32.147Z,32.85
2022-08-27T13:05:03.450Z,32.99
2022-08-27T13:07:42.785Z,33.10
2022-08-27T13:10:16.505Z,32.83
2022-08-27T13:12:46.119Z,33.03
2022-08-27T13:15:15.674Z,32.07
2022-08-27T13:17:46.644Z,32.20
2022-08-27T13:20:21.983Z,32.31
2022-08-27T13:22:49.712Z,32.48
2022-08-27T13:25:32.884Z,32.37
2022-08-27T13:28:08.798Z,32.06
2022-08-27T13:30:47.081Z,32.44
2022-08-27T13:33:25.282Z,32.81
2022-08-27T13:35:52.057Z,33.20
2022-08-27T13:38:21.656Z,33.09
2022-08-27T13:41:10.320Z,33.16
2022-08-27T13:43:43.655Z,32.27
2022-08-27T13:46:18.205Z,32.88
2022-08-27T13:48:49.312Z,32.77
2022-08-27T13:51:28.956Z,33.20
2022-08-27T13:53:56.316Z,33.27
2022-08-27T13:56:32.576Z,33.30
2022-08-27T13:59:26.093Z,33.46
2022-08-27T14:02:11.204Z,33.63
2022-08-27T14:04:43.778Z,32.73
2022-08-27T14:07:32.415Z,33.34
2022-08-27T14:10:04.513Z,33.49
2022-08-27T14:12:35.861Z,33.58
2022-08-27T14:15:48.260Z,33.33
2022-08-27T14:18:37.175Z,33.21
2022-08-27T14:21:09.090Z,32.78
2022-08-27T14:23:35.790Z,33.17
2022-08-27T14:26:02.932Z,33.49
2022-08-27T14:28:29.658Z,32.02
2022-08-27T14:30:56.316Z,31.83
2022-08-27T14:33:22.991Z,32.12
2022-08-27T14:35:49.650Z,32.19
2022-08-27T14:38:20.017Z,32.33
2022-08-27T14:40:48.162Z,32.27
2022-08-27T14:43:18.214Z,32.95
2022-08-27T14:45:51.685Z,33.29
2022-08-27T14:48:28.835Z,33.09
2022-08-27T14:50:56.698Z,32.84
2022-08-27T14:53:24.067Z,32.78
2022-08-27T14:55:51.664Z,33.06
2022-08-27T14:58:18.685Z,33.15
2022-08-27T15:00:45.303Z,33.26
2022-08-27T15:03:15.733Z,33.19
2022-08-27T15:05:43.034Z,32.39
2022-08-27T15:08:13.103Z,33.06
2022-08-27T15:10:40.517Z,33.68
2022-08-27T15:13:07.158Z,33.89
2022-08-27T15:15:33.985Z,33.90
2022-08-27T15:18:01.853Z,33.56
2022-08-27T15:20:28.471Z,33.82
2022-08-27T15:22:55.103Z,32.88
2022-08-27T15:25:22.421Z,34.47
2022-08-27T15:27:49.791Z,34.89
2022-08-27T15:30:18.348Z,34.61
2022-08-27T15:32:47.571Z,34.77
2022-08-27T15:35:18.366Z,35.17
2022-08-27T15:37:45.835Z,34.62
2022-08-27T15:40:15.612Z,34.59
2022-08-27T15:42:42.906Z,33.58
2022-08-27T15:45:12.461Z,34.43
2022-08-27T15:47:39.418Z,34.41
2022-08-27T15:50:06.930Z,33.40
2022-08-27T15:52:40.828Z,33.02
2022-08-27T15:55:19.586Z,32.92
2022-08-27T15:57:46.559Z,32.43
2022-08-27T16:00:13.666Z,33.19
2022-08-27T16:02:41.867Z,33.72
2022-08-27T16:05:08.593Z,34.15
2022-08-27T16:07:35.188Z,33.81
2022-08-27T16:10:04.213Z,32.86
2022-08-27T16:12:30.821Z,31.64
2022-08-27T16:14:57.424Z,32.30
2022-08-27T16:17:26.421Z,32.12
2022-08-27T16:19:53.533Z,32.74
2022-08-27T16:22:20.166Z,32.70
2022-08-27T16:24:46.861Z,32.85
2022-08-27T16:27:13.502Z,33.10
2022-08-27T16:29:40.190Z,32.99
2022-08-27T16:32:13.355Z,32.83
2022-08-27T16:34:40.176Z,31.92
2022-08-27T16:37:09.840Z,32.40
2022-08-27T16:39:40.443Z,32.80
2022-08-27T16:42:08.396Z,32.41
2022-08-27T16:44:35.012Z,32.20
2022-08-27T16:47:01.780Z,32.05
2022-08-27T16:49:28.403Z,31.96
2022-08-27T16:51:55.245Z,31.69
2022-08-27T16:54:21.972Z,31.53
2022-08-27T16:56:48.613Z,31.27
2022-08-27T16:59:15.236Z,31.25
2022-08-27T17:01:42.360Z,31.00
2022-08-27T17:04:17.258Z,30.70
2022-08-27T17:06:50.605Z,30.42
2022-08-27T17:09:18.233Z,30.31
2022-08-27T17:11:53.760Z,30.14
2022-08-27T17:14:20.498Z,29.94
2022-08-27T17:16:47.167Z,29.80
2022-08-27T17:19:16.653Z,29.58
2022-08-27T17:21:45.284Z,29.41
2022-08-27T17:24:13.062Z,29.33
2022-08-27T17:26:40.245Z,29.34
2022-08-27T17:29:06.941Z,29.20
2022-08-27T17:31:36.316Z,28.97
2022-08-27T17:34:04.550Z,28.91
2022-08-27T17:36:31.666Z,28.84
2022-08-27T17:39:00.210Z,28.67
2022-08-27T17:41:28.707Z,28.59
2022-08-27T17:44:01.485Z,28.69
2022-08-27T17:46:29.034Z,28.94
2022-08-27T17:48:55.763Z,28.70
2022-08-27T17:51:22.746Z,28.63
2022-08-27T17:53:55.950Z,28.42
2022-08-27T17:56:26.550Z,28.20
2022-08-27T17:58:54.135Z,28.11
2022-08-27T18:01:30.755Z,27.82
2022-08-27T18:03:58.602Z,27.76
2022-08-27T18:06:26.867Z,27.65
2022-08-27T18:08:54.266Z,27.63
2022-08-27T18:11:21.278Z,27.75
2022-08-27T18:13:52.972Z,27.85
2022-08-27T18:16:20.603Z,28.08
2022-08-27T18:18:47.665Z,27.89
2022-08-27T18:21:25.174Z,27.90
2022-08-27T18:23:53.429Z,27.59
2022-08-27T18:26:21.964Z,27.48
2022-08-27T18:28:49.167Z,27.46
2022-08-27T18:31:18.848Z,27.33
2022-08-27T18:33:45.969Z,27.18
2022-08-27T18:36:12.620Z,27.10
2022-08-27T18:38:39.367Z,26.99
2022-08-27T18:41:08.370Z,26.94
2022-08-27T18:43:35.885Z,26.99
2022-08-27T18:46:04.153Z,26.88
2022-08-27T18:48:30.967Z,26.78
2022-08-27T18:51:00.174Z,26.72
2022-08-27T18:53:30.404Z,26.69
2022-08-27T18:55:57.041Z,26.68
2022-08-27T18:58:24.190Z,26.65
2022-08-27T19:00:55.174Z,26.64
2022-08-27T19:03:26.697Z,26.52
2022-08-27T19:05:54.934Z,26.50
2022-08-27T19:08:24.362Z,26.29
2022-08-27T19:10:51.018Z,26.35
2022-08-27T19:13:17.766Z,26.32
2022-08-27T19:15:52.001Z,26.05
2022-08-27T19:18:19.185Z,26.01
2022-08-27T19:20:45.843Z,26.05
2022-08-27T19:23:12.624Z,26.06
2022-08-27T19:25:39.558Z,26.01
2022-08-27T19:28:06.393Z,25.97
2022-08-27T19:30:33.138Z,25.85
2022-08-27T19:32:59.831Z,25.87
2022-08-27T19:35:26.464Z,25.81
2022-08-27T19:37:53.530Z,25.64
2022-08-27T19:40:23.998Z,25.66
2022-08-27T19:42:50.921Z,25.70
2022-08-27T19:45:23.108Z,25.64
2022-08-27T19:47:51.776Z,25.53
2022-08-27T19:50:18.723Z,25.37
2022-08-27T19:52:45.461Z,25.41
2022-08-27T19:55:14.295Z,25.50
2022-08-27T19:57:42.934Z,25.57
2022-08-27T20:00:12.339Z,25.31
2022-08-27T20:02:39.118Z,25.19
2022-08-27T20:05:17.875Z,25.11
2022-08-27T20:07:49.499Z,25.12
2022-08-27T20:10:18.206Z,25.20
2022-08-27T20:12:45.260Z,25.29
2022-08-27T20:15:12.364Z,25.53
2022-08-27T20:17:39.416Z,25.32
2022-08-27T20:20:07.291Z,25.35
2022-08-27T20:22:33.952Z,25.39
2022-08-27T20:25:00.666Z,25.34
2022-08-27T20:27:27.290Z,25.23
2022-08-27T20:29:53.970Z,25.08
2022-08-27T20:32:21.596Z,24.96
2022-08-27T20:34:48.811Z,24.87
2022-08-27T20:37:16.665Z,24.80
2022-08-27T20:39:43.334Z,24.72
2022-08-27T20:42:10.023Z,24.65
2022-08-27T20:44:38.025Z,24.69
2022-08-27T20:47:05.064Z,24.84
2022-08-27T20:49:31.758Z,24.84
2022-08-27T20:52:03.271Z,24.73
2022-08-27T20:54:32.196Z,24.65
2022-08-27T20:56:58.906Z,24.68
2022-08-27T20:59:26.201Z,24.71
2022-08-27T21:01:52.935Z,24.71
2022-08-27T21:04:19.636Z,24.65
2022-08-27T21:06:46.328Z,24.59
2022-08-27T21:09:12.966Z,24.49
2022-08-27T21:11:39.595Z,24.41
2022-08-27T21:14:06.273Z,24.44
2022-08-27T21:16:33.038Z,24.44
2022-08-27T21:18:59.695Z,24.39
2022-08-27T21:21:26.551Z,24.29
2022-08-27T21:23:53.170Z,24.33
2022-08-27T21:26:19.889Z,24.21
2022-08-27T21:28:46.529Z,24.17
2022-08-27T21:31:13.334Z,24.15
2022-08-27T21:33:40.130Z,24.12
2022-08-27T21:36:11.312Z,24.06
2022-08-27T21:38:38.944Z,24.11
2022-08-27T21:41:05.762Z,24.03
2022-08-27T21:43:32.588Z,24.03
2022-08-27T21:45:59.243Z,23.94
2022-08-27T21:48:26.498Z,23.80
2022-08-27T21:50:53.711Z,23.85
2022-08-27T21:53:21.538Z,23.81
2022-08-27T21:55:52.372Z,23.78
2022-08-27T21:58:23.332Z,23.75
2022-08-27T22:00:53.028Z,23.82
2022-08-27T22:03:21.670Z,23.44
2022-08-27T22:05:49.496Z,23.36
2022-08-27T22:08:18.718Z,23.25
2022-08-27T22:10:48.761Z,23.23
2022-08-27T22:13:15.798Z,23.32
2022-08-27T22:15:42.507Z,23.29
2022-08-27T22:18:09.583Z,23.40
2022-08-27T22:20:36.555Z,23.28
2022-08-27T22:23:06.472Z,23.23
2022-08-27T22:25:33.727Z,23.14
2022-08-27T22:28:00.375Z,23.22
2022-08-27T22:30:27.068Z,23.22
2022-08-27T22:32:53.720Z,23.15
2022-08-27T22:35:20.953Z,23.21
2022-08-27T22:37:47.647Z,23.30
2022-08-27T22:40:19.197Z,23.31
2022-08-27T22:42:46.400Z,23.21
2022-08-27T22:45:13.186Z,23.38
2022-08-27T22:47:39.822Z,23.34
2022-08-27T22:50:07.323Z,23.33
2022-08-27T22:52:34.034Z,23.32
2022-08-27T22:55:00.690Z,23.31
2022-08-27T22:57:27.532Z,23.30
2022-08-27T22:59:54.191Z,23.22
2022-08-27T23:02:21.061Z,23.21
2022-08-27T23:04:55.778Z,23.10
2022-08-27T23:07:23.960Z,22.95
2022-08-27T23:09:50.923Z,22.94
2022-08-27T23:12:17.622Z,22.88
2022-08-27T23:14:44.283Z,22.91
2022-08-27T23:17:10.889Z,22.90
2022-08-27T23:19:37.569Z,22.99
2022-08-27T23:22:06.647Z,22.98
2022-08-27T23:24:34.392Z,23.00
2022-08-27T23:27:01.005Z,23.01
2022-08-27T23:29:27.945Z,22.91
2022-08-27T23:31:55.028Z,22.83
2022-08-27T23:34:21.668Z,22.84
2022-08-27T23:36:48.359Z,22.56
2022-08-27T23:39:15.676Z,22.45
2022-08-27T23:41:43.291Z,22.21
2022-08-27T23:44:13.060Z,22.07
2022-08-27T23:46:40.077Z,22.14
2022-08-27T23:49:06.756Z,22.19
2022-08-27T23:51:33.468Z,22.23
2022-08-27T23:54:00.202Z,22.35
2022-08-27T23:56:28.100Z,22.63
2022-08-27T23:58:56.980Z,21.98
